Time;durP1;ratioP1;P1;durP2;ratioP2;P2;SDS_P1;SDS_P2;PMS_P1;PMS_P2;Temp;Humidity;BMP_temperature;BMP_pressure;BME280_temperature;BME280_humidity;BME280_pressure;Samples;Min_cycle;Max_cycle;Signal;HPM_P1;HPM_P2
2022/05/07 00:01:04;;;;;;;17.35;15.85;;;14.40;67.00;;;;;;5099501;28;20448;-63
2022/05/07 00:03:31;;;;;;;17.50;15.90;;;14.40;67.30;;;;;;5104864;28;20505;-63
2022/05/07 00:05:58;;;;;;;18.23;16.63;;;14.40;67.30;;;;;;5101720;27;20477;-64
2022/05/07 00:08:24;;;;;;;18.25;16.70;;;14.30;69.00;;;;;;5097037;28;20537;-63
2022/05/07 00:10:52;;;;;;;18.88;17.35;;;14.40;69.70;;;;;;5097686;28;20515;-63
2022/05/07 00:13:19;;;;;;;19.30;17.50;;;14.30;70.00;;;;;;5101215;28;20519;-62
2022/05/07 00:18:27;;;;;;;19.30;17.70;;;14.30;69.00;;;;;;5102257;28;20420;-63
2022/05/07 00:20:53;;;;;;;19.20;17.70;;;14.20;68.60;;;;;;5105084;28;20435;-63
2022/05/07 00:23:20;;;;;;;19.70;18.10;;;14.20;68.70;;;;;;5100146;28;20424;-63
2022/05/07 00:25:47;;;;;;;20.77;19.17;;;14.10;69.10;;;;;;5097084;28;21001;-63
2022/05/07 00:28:14;;;;;;;20.17;18.58;;;14.10;68.60;;;;;;5099170;28;20476;-63
2022/05/07 00:30:42;;;;;;;19.85;18.25;;;14.00;69.40;;;;;;5096655;28;20460;-62
2022/05/07 00:33:09;;;;;;;20.90;19.10;;;14.00;69.80;;;;;;5094060;28;20417;-62
2022/05/07 00:35:36;;;;;;;20.73;19.07;;;14.00;69.80;;;;;;5102986;28;20424;-63
2022/05/07 00:38:02;;;;;;;20.85;19.15;;;14.00;69.70;;;;;;5100379;28;20428;-61
2022/05/07 00:40:29;;;;;;;22.10;20.30;;;13.90;69.70;;;;;;5098636;28;20506;-62
2022/05/07 00:42:56;;;;;;;21.17;19.38;;;13.80;69.30;;;;;;5101770;28;20884;-62
2022/05/07 00:45:22;;;;;;;20.75;19.15;;;13.80;69.80;;;;;;5100410;28;20428;-62
2022/05/07 00:47:51;;;;;;;22.48;20.67;;;13.70;69.90;;;;;;5103944;27;20436;-62
2022/05/07 00:53:02;;;;;;;21.83;20.30;;;13.60;70.10;;;;;;5104111;28;20581;-63
2022/05/07 00:55:30;;;;;;;21.13;19.52;;;13.50;70.40;;;;;;5101331;28;20424;-62
2022/05/07 00:57:57;;;;;;;22.00;20.27;;;13.50;71.10;;;;;;5098488;28;20515;-62
2022/05/07 01:00:24;;;;;;;22.17;20.58;;;13.50;71.00;;;;;;5100207;28;20494;-62
2022/05/07 01:02:52;;;;;;;21.55;19.92;;;13.40;71.50;;;;;;5102732;28;20469;-63
2022/05/07 01:05:18;;;;;;;22.48;20.77;;;13.40;71.30;;;;;;5103824;28;20420;-63
2022/05/07 01:07:46;;;;;;;22.83;21.02;;;13.30;72.50;;;;;;5098694;28;20428;-63
2022/05/07 01:10:13;;;;;;;23.25;21.40;;;13.30;72.00;;;;;;5105031;28;20435;-62
2022/05/07 01:12:41;;;;;;;22.80;21.10;;;13.30;72.30;;;;;;5099326;28;20424;-63
2022/05/07 01:15:08;;;;;;;22.90;21.10;;;13.30;72.50;;;;;;5100251;27;20432;-62
2022/05/07 01:17:36;;;;;;;23.10;21.30;;;13.20;72.90;;;;;;5104756;27;20435;-62
2022/05/07 01:20:08;;;;;;;23.40;21.50;;;13.20;73.30;;;;;;5103000;27;20435;-63
2022/05/07 01:22:37;;;;;;;23.52;21.73;;;13.20;73.00;;;;;;5100338;28;20503;-62
2022/05/07 01:25:04;;;;;;;24.00;22.00;;;13.20;73.00;;;;;;5095332;28;20502;-63
2022/05/07 01:27:31;;;;;;;23.40;21.60;;;13.10;73.10;;;;;;5110489;27;20482;-63
2022/05/07 01:29:58;;;;;;;22.80;21.03;;;13.10;73.40;;;;;;5102833;27;20975;-63
2022/05/07 01:32:24;;;;;;;24.92;22.83;;;13.10;73.50;;;;;;5103175;27;20434;-62
2022/05/07 01:34:53;;;;;;;23.45;21.65;;;13.00;73.80;;;;;;5101435;28;20442;-62
2022/05/07 01:37:20;;;;;;;23.80;21.90;;;13.00;74.20;;;;;;5104327;28;20453;-63
2022/05/07 01:39:48;;;;;;;23.80;21.90;;;13.00;74.60;;;;;;5100964;28;20435;-63
2022/05/07 01:42:14;;;;;;;24.00;22.13;;;12.90;74.50;;;;;;5101861;28;20424;-61
2022/05/07 01:44:41;;;;;;;23.93;21.93;;;12.90;74.40;;;;;;5108188;27;21223;-62
2022/05/07 01:49:52;;;;;;;23.92;22.02;;;12.90;74.30;;;;;;5100636;28;20932;-62
2022/05/07 01:52:19;;;;;;;23.48;21.65;;;12.90;74.50;;;;;;5101109;28;20432;-62
2022/05/07 01:54:45;;;;;;;24.70;22.70;;;12.80;74.30;;;;;;5104441;27;20443;-62
2022/05/07 01:57:13;;;;;;;24.10;22.20;;;12.90;73.90;;;;;;5101737;27;20431;-62
2022/05/07 01:59:40;;;;;;;23.50;21.50;;;12.90;73.60;;;;;;5097090;27;20563;-63
2022/05/07 02:02:07;;;;;;;23.98;22.10;;;12.80;73.60;;;;;;5103521;27;20428;-62
2022/05/07 02:04:33;;;;;;;24.33;22.52;;;12.70;73.50;;;;;;5105219;27;20428;-62
2022/05/07 02:07:00;;;;;;;24.33;22.33;;;12.70;74.20;;;;;;5103136;27;20910;-63
2022/05/07 02:09:27;;;;;;;23.42;21.73;;;12.70;75.30;;;;;;5100393;27;20466;-63
2022/05/07 02:11:53;;;;;;;24.45;22.50;;;12.60;74.20;;;;;;5099813;27;20919;-63
2022/05/07 02:14:21;;;;;;;24.65;22.75;;;12.70;74.00;;;;;;5102238;28;20447;-62
2022/05/07 02:16:48;;;;;;;23.10;21.40;;;12.60;74.00;;;;;;5102390;27;20436;-63
2022/05/07 02:19:14;;;;;;;24.52;22.50;;;12.60;73.90;;;;;;5103975;27;20930;-63
2022/05/07 02:21:41;;;;;;;25.10;23.10;;;12.60;73.60;;;;;;5103594;27;20420;-63
2022/05/07 02:24:08;;;;;;;24.27;22.42;;;12.60;73.70;;;;;;5107105;27;20428;-63
2022/05/07 02:26:34;;;;;;;25.23;23.13;;;12.60;73.50;;;;;;5105071;27;20533;-62
2022/05/07 02:29:01;;;;;;;25.00;23.00;;;12.60;73.80;;;;;;5102177;27;20424;-62
2022/05/07 02:31:29;;;;;;;25.67;23.52;;;12.50;73.70;;;;;;5104527;27;20907;-62
2022/05/07 02:33:56;;;;;;;25.98;23.88;;;12.50;74.00;;;;;;5107762;27;20993;-63
2022/05/07 02:36:22;;;;;;;25.00;23.20;;;12.40;74.00;;;;;;5102911;27;20974;-63
2022/05/07 02:38:49;;;;;;;24.88;22.88;;;12.40;74.10;;;;;;5102965;27;20464;-62
2022/05/07 02:44:02;;;;;;;26.45;24.25;;;12.30;74.60;;;;;;5102771;27;20426;-63
2022/05/07 02:46:30;;;;;;;26.52;24.50;;;12.30;75.30;;;;;;5104605;27;20797;-63
2022/05/07 02:48:56;;;;;;;26.33;24.33;;;12.20;75.40;;;;;;5102904;27;20821;-63
2022/05/07 02:51:23;;;;;;;26.85;24.75;;;12.20;75.70;;;;;;5100654;27;20443;-63
2022/05/07 02:53:50;;;;;;;26.30;24.20;;;12.20;76.30;;;;;;5100010;27;20488;-63
2022/05/07 02:56:16;;;;;;;26.40;24.30;;;12.20;76.60;;;;;;5105409;27;20436;-62
2022/05/07 02:58:43;;;;;;;26.45;24.45;;;12.20;76.70;;;;;;5102490;27;20918;-63
2022/05/07 03:01:09;;;;;;;26.45;24.42;;;12.10;77.00;;;;;;5100373;27;21139;-63
2022/05/07 03:03:37;;;;;;;27.20;25.20;;;12.10;77.10;;;;;;5104799;27;20454;-62
2022/05/07 03:06:04;;;;;;;28.15;26.05;;;12.10;77.60;;;;;;5103968;27;20521;-62
2022/05/07 03:08:31;;;;;;;27.75;25.45;;;12.00;77.80;;;;;;5102059;27;20493;-63
2022/05/07 03:10:58;;;;;;;27.95;25.75;;;12.00;78.20;;;;;;5107808;27;20794;-62
2022/05/07 03:13:25;;;;;;;28.08;25.77;;;12.10;78.40;;;;;;5099365;27;20509;-63
2022/05/07 03:15:52;;;;;;;28.20;26.00;;;12.10;78.60;;;;;;5104643;27;20440;-62
2022/05/07 03:18:19;;;;;;;27.33;25.23;;;12.00;78.50;;;;;;5104008;27;20436;-63
2022/05/07 03:20:47;;;;;;;27.55;25.45;;;12.00;78.30;;;;;;5102935;27;20584;-62
2022/05/07 03:23:14;;;;;;;27.77;25.58;;;12.00;78.20;;;;;;5105090;27;20471;-62
2022/05/07 03:25:40;;;;;;;27.38;25.33;;;12.00;77.90;;;;;;5106960;27;21176;-63
2022/05/07 03:28:07;;;;;;;28.50;26.40;;;12.00;78.00;;;;;;5104025;27;20477;-63
2022/05/07 03:30:34;;;;;;;27.95;25.83;;;12.00;77.80;;;;;;5109604;27;20486;-63
2022/05/07 03:33:01;;;;;;;27.83;25.63;;;11.90;77.60;;;;;;5106555;27;20857;-63
2022/05/07 03:35:28;;;;;;;27.77;25.75;;;11.90;77.80;;;;;;5104686;27;20451;-63
2022/05/07 03:37:56;;;;;;;27.50;25.48;;;11.80;77.90;;;;;;5099422;28;20431;-63
2022/05/07 03:40:23;;;;;;;26.83;24.83;;;11.80;78.00;;;;;;5103346;27;20920;-63
2022/05/07 03:42:49;;;;;;;28.42;26.02;;;11.80;77.80;;;;;;5102993;27;20439;-62
2022/05/07 03:45:16;;;;;;;29.02;26.73;;;11.80;77.80;;;;;;5107878;27;20522;-63
2022/05/07 03:47:43;;;;;;;27.92;25.73;;;11.80;78.40;;;;;;5101237;27;20440;-63
2022/05/07 03:50:10;;;;;;;29.08;26.88;;;11.70;78.80;;;;;;5105034;27;20431;-62
2022/05/07 03:55:22;;;;;;;29.27;26.98;;;11.70;79.40;;;;;;5104112;27;20744;-62
2022/05/07 03:57:49;;;;;;;29.23;27.02;;;11.70;79.40;;;;;;5103235;27;20524;-63
2022/05/07 04:00:16;;;;;;;30.02;27.83;;;11.70;79.30;;;;;;5100767;27;20457;-62
2022/05/07 04:02:42;;;;;;;29.60;27.40;;;11.70;79.50;;;;;;5101878;27;20427;-63
2022/05/07 04:05:09;;;;;;;30.80;28.40;;;11.70;79.60;;;;;;5107871;27;20490;-63
2022/05/07 04:07:36;;;;;;;30.50;28.10;;;11.70;79.70;;;;;;5101139;28;20496;-63
2022/05/07 04:10:03;;;;;;;31.40;28.80;;;11.70;79.70;;;;;;5101625;28;20434;-63
2022/05/07 04:12:31;;;;;;;31.20;28.70;;;11.60;79.60;;;;;;5111444;28;20653;-62
2022/05/07 04:14:59;;;;;;;31.48;28.98;;;11.60;80.10;;;;;;5098099;28;20431;-62
2022/05/07 04:17:26;;;;;;;29.90;27.70;;;11.60;80.00;;;;;;5100307;28;20424;-62
2022/05/07 04:19:53;;;;;;;31.35;28.95;;;11.60;80.00;;;;;;5102199;28;20438;-62
2022/05/07 04:22:20;;;;;;;30.13;27.93;;;11.60;79.80;;;;;;5095999;28;20559;-63
2022/05/07 04:24:47;;;;;;;31.20;28.70;;;11.60;80.00;;;;;;5096852;28;20531;-64
2022/05/07 04:27:13;;;;;;;31.57;29.27;;;11.60;79.80;;;;;;5098722;28;21427;-66
2022/05/07 04:29:41;;;;;;;31.20;28.80;;;11.60;80.00;;;;;;5102616;28;20432;-65
2022/05/07 04:32:09;;;;;;;30.77;28.48;;;11.60;79.70;;;;;;5100821;28;20504;-65
2022/05/07 04:34:36;;;;;;;30.98;28.67;;;11.60;79.90;;;;;;5095179;28;20432;-64
2022/05/07 04:37:02;;;;;;;31.80;29.40;;;11.60;79.30;;;;;;5100426;28;20427;-63
2022/05/07 04:39:30;;;;;;;32.30;29.80;;;11.50;79.40;;;;;;5098433;28;20527;-65
2022/05/07 04:41:57;;;;;;;30.83;28.52;;;11.50;80.00;;;;;;5102070;28;20454;-65
2022/05/07 04:44:24;;;;;;;31.88;29.27;;;11.50;79.70;;;;;;5093299;28;20572;-69
2022/05/07 04:46:52;;;;;;;31.60;29.20;;;11.50;79.70;;;;;;5099374;28;20436;-64
2022/05/07 04:49:19;;;;;;;31.60;29.10;;;11.50;79.80;;;;;;5102198;28;20480;-63
2022/05/07 04:51:46;;;;;;;30.55;28.25;;;11.50;79.70;;;;;;5103481;28;20538;-65
2022/05/07 04:54:13;;;;;;;30.83;28.42;;;11.50;79.90;;;;;;5106403;28;21049;-65
2022/05/07 04:56:40;;;;;;;30.55;28.35;;;11.60;79.90;;;;;;5106080;28;20435;-65
2022/05/07 04:59:07;;;;;;;30.47;28.07;;;11.60;79.50;;;;;;5104838;28;20432;-64
2022/05/07 05:01:33;;;;;;;29.58;27.27;;;11.70;79.10;;;;;;5105110;28;20530;-65
2022/05/07 05:04:01;;;;;;;28.90;26.67;;;11.70;78.60;;;;;;5106897;28;20597;-64
2022/05/07 05:06:28;;;;;;;29.63;27.33;;;11.70;79.00;;;;;;5102410;28;20432;-65
2022/05/07 05:08:55;;;;;;;29.33;27.13;;;11.70;78.10;;;;;;5100620;27;20533;-64
2022/05/07 05:11:21;;;;;;;31.17;28.75;;;11.80;77.00;;;;;;5098197;28;20895;-64
2022/05/07 05:13:48;;;;;;;30.92;28.42;;;11.80;77.00;;;;;;5105442;28;20516;-65
2022/05/07 05:16:15;;;;;;;31.05;28.65;;;11.70;76.70;;;;;;5100248;28;20519;-65
2022/05/07 05:18:41;;;;;;;30.98;28.58;;;11.70;76.70;;;;;;5096737;28;20475;-64
2022/05/07 05:21:09;;;;;;;30.52;28.33;;;11.70;76.50;;;;;;5106064;28;20528;-64
2022/05/07 05:23:36;;;;;;;31.90;29.30;;;11.70;76.90;;;;;;5105065;28;20432;-65
2022/05/07 05:26:03;;;;;;;31.00;28.50;;;11.70;77.20;;;;;;5096235;28;20951;-65
2022/05/07 05:28:29;;;;;;;31.80;29.38;;;11.60;77.70;;;;;;5098857;28;20436;-64
2022/05/07 05:30:56;;;;;;;30.73;28.42;;;11.60;77.60;;;;;;5103128;28;20572;-63
2022/05/07 05:33:23;;;;;;;32.03;29.45;;;11.70;77.60;;;;;;5104498;28;20500;-65
2022/05/07 05:35:50;;;;;;;31.98;29.55;;;11.70;77.60;;;;;;5102263;28;20428;-64
2022/05/07 05:38:18;;;;;;;32.53;29.98;;;11.80;78.00;;;;;;5105278;28;20523;-64
2022/05/07 05:40:45;;;;;;;30.88;28.48;;;11.80;77.30;;;;;;5098860;27;21157;-65
2022/05/07 05:43:12;;;;;;;31.13;28.83;;;11.80;77.50;;;;;;5103984;28;20432;-64
2022/05/07 05:45:38;;;;;;;30.50;28.17;;;11.90;77.50;;;;;;5098621;28;20437;-65
2022/05/07 05:48:06;;;;;;;31.25;28.70;;;11.90;77.50;;;;;;5099080;28;20506;-64
2022/05/07 05:50:33;;;;;;;31.48;29.08;;;12.00;76.90;;;;;;5108062;27;20502;-65
2022/05/07 05:53:00;;;;;;;29.45;27.25;;;12.10;76.60;;;;;;5105260;28;20782;-64
2022/05/07 05:55:28;;;;;;;31.10;28.57;;;12.10;76.20;;;;;;5104421;28;20455;-64
2022/05/07 05:57:55;;;;;;;29.70;27.60;;;12.20;76.10;;;;;;5093119;28;20428;-64
2022/05/07 06:00:22;;;;;;;29.20;26.92;;;12.20;75.70;;;;;;5101384;28;21449;-64
2022/05/07 06:02:49;;;;;;;30.25;28.05;;;12.30;75.90;;;;;;5100977;28;20423;-64
2022/05/07 06:05:17;;;;;;;30.20;28.00;;;12.30;75.50;;;;;;5117047;27;20498;-64
2022/05/07 06:07:44;;;;;;;29.33;27.13;;;12.30;75.40;;;;;;5097885;27;20494;-64
2022/05/07 06:10:10;;;;;;;29.25;27.05;;;12.30;75.30;;;;;;5106255;27;20892;-65
2022/05/07 06:12:38;;;;;;;29.30;27.13;;;12.40;75.30;;;;;;5105421;27;20435;-64
2022/05/07 06:15:07;;;;;;;29.02;26.90;;;12.50;74.80;;;;;;5107007;27;21036;-64
2022/05/07 06:17:34;;;;;;;29.33;27.23;;;12.60;74.50;;;;;;5103433;28;20445;-64
2022/05/07 06:20:01;;;;;;;29.05;26.85;;;12.70;73.60;;;;;;5103879;27;20444;-64
2022/05/07 06:22:27;;;;;;;28.70;26.70;;;12.80;73.30;;;;;;5097353;28;20418;-64
2022/05/07 06:27:40;;;;;;;28.08;25.88;;;13.00;72.70;;;;;;5102151;27;20430;-65
2022/05/07 06:30:08;;;;;;;27.67;25.67;;;13.10;72.60;;;;;;5100343;28;20512;-65
2022/05/07 06:32:35;;;;;;;26.80;24.98;;;13.30;72.70;;;;;;5104513;28;20511;-64
2022/05/07 06:35:04;;;;;;;27.45;25.45;;;13.40;71.40;;;;;;5099266;27;20432;-64
2022/05/07 06:37:30;;;;;;;26.40;24.40;;;13.60;70.00;;;;;;5103461;28;20515;-64
2022/05/07 06:39:57;;;;;;;25.80;23.88;;;13.70;69.50;;;;;;5099965;28;20435;-64
2022/05/07 06:42:24;;;;;;;26.35;24.35;;;13.80;68.40;;;;;;5104987;27;20939;-63
2022/05/07 06:44:52;;;;;;;24.88;22.98;;;13.90;68.00;;;;;;5097290;27;20424;-63
2022/05/07 06:47:19;;;;;;;24.80;23.00;;;14.00;67.70;;;;;;5103811;28;20428;-63
2022/05/07 06:49:46;;;;;;;24.45;22.55;;;14.20;67.10;;;;;;5103018;28;20745;-63
2022/05/07 06:52:13;;;;;;;24.90;23.10;;;14.30;66.70;;;;;;5098397;28;20534;-64
2022/05/07 06:54:39;;;;;;;24.85;23.00;;;14.60;65.70;;;;;;5102820;27;20428;-63
2022/05/07 06:57:07;;;;;;;24.60;22.60;;;14.70;64.40;;;;;;5103973;27;21171;-66
2022/05/07 06:59:34;;;;;;;24.58;22.52;;;14.90;64.60;;;;;;5103861;28;20762;-63
2022/05/07 07:02:02;;;;;;;24.67;22.77;;;15.00;63.80;;;;;;5103301;28;20498;-63
2022/05/07 07:04:28;;;;;;;23.60;21.90;;;15.20;63.50;;;;;;5102266;28;20428;-63
2022/05/07 07:06:56;;;;;;;24.55;22.65;;;15.40;62.80;;;;;;5103369;28;20941;-63
2022/05/07 07:09:22;;;;;;;23.60;21.80;;;15.60;61.00;;;;;;5104415;28;20416;-63
2022/05/07 07:11:49;;;;;;;24.60;22.70;;;15.70;61.20;;;;;;5100083;28;20655;-63
2022/05/07 07:14:16;;;;;;;24.10;22.20;;;15.80;60.00;;;;;;5099769;28;20477;-63
2022/05/07 07:16:43;;;;;;;24.00;22.20;;;15.90;59.70;;;;;;5102513;28;20742;-63
2022/05/07 07:19:11;;;;;;;22.80;21.00;;;16.00;59.60;;;;;;5102531;27;20463;-63
2022/05/07 07:21:38;;;;;;;22.90;21.20;;;16.00;58.80;;;;;;5104135;28;20420;-63
2022/05/07 07:24:05;;;;;;;22.90;21.15;;;16.10;59.00;;;;;;5101227;28;20486;-63
2022/05/07 07:26:32;;;;;;;23.20;21.40;;;16.20;58.30;;;;;;5103189;27;20519;-64
2022/05/07 07:28:58;;;;;;;22.23;20.42;;;16.40;58.20;;;;;;5101398;27;20484;-63
2022/05/07 07:31:25;;;;;;;21.73;20.13;;;16.60;57.00;;;;;;5101259;28;20483;-63
2022/05/07 07:33:52;;;;;;;21.27;19.58;;;16.80;57.00;;;;;;5103457;27;20426;-63
2022/05/07 07:36:20;;;;;;;20.30;18.70;;;17.10;56.10;;;;;;5102555;27;20554;-65
2022/05/07 07:38:46;;;;;;;20.47;18.73;;;17.30;56.10;;;;;;5103045;27;20540;-67
2022/05/07 07:41:13;;;;;;;19.40;17.90;;;17.60;55.20;;;;;;5102611;28;20524;-65
2022/05/07 07:43:40;;;;;;;21.05;19.25;;;17.90;54.60;;;;;;5101779;28;20416;-67
2022/05/07 07:48:52;;;;;;;19.80;18.30;;;18.30;51.30;;;;;;5102619;28;20391;-69
2022/05/07 07:51:20;;;;;;;20.05;18.35;;;18.30;51.80;;;;;;5102338;28;20458;-67
2022/05/07 07:53:47;;;;;;;18.63;17.23;;;18.40;51.30;;;;;;5101182;28;20522;-67
2022/05/07 07:56:14;;;;;;;18.30;16.80;;;18.50;50.00;;;;;;5100610;28;20537;-65
2022/05/07 07:58:40;;;;;;;17.20;15.80;;;18.80;50.40;;;;;;5100942;28;20893;-68
2022/05/07 08:01:07;;;;;;;17.80;16.40;;;19.10;49.50;;;;;;5101302;28;20458;-68
2022/05/07 08:03:34;;;;;;;17.00;15.60;;;19.30;48.60;;;;;;5106805;27;20477;-68
2022/05/07 08:06:00;;;;;;;17.80;16.40;;;19.50;47.30;;;;;;5102182;28;20496;-68
2022/05/07 08:13:56;;;;;;;16.40;15.00;;;20.20;44.80;;;;;;5096179;28;20466;-68
2022/05/07 08:16:25;;;;;;;16.27;14.82;;;20.40;44.70;;;;;;5100107;28;20544;-68
2022/05/07 08:18:51;;;;;;;16.08;14.68;;;20.60;44.10;;;;;;5122564;22;20561;-73
2022/05/07 08:21:18;;;;;;;14.93;13.35;;;20.80;42.50;;;;;;5094784;28;20425;-73
2022/05/07 08:23:47;;;;;;;14.43;13.20;;;20.90;42.90;;;;;;5086142;28;20530;-73
2022/05/07 08:26:14;;;;;;;15.80;14.40;;;21.10;43.10;;;;;;5102244;28;20421;-72
2022/05/07 08:28:41;;;;;;;16.13;14.68;;;21.20;42.80;;;;;;5099700;28;20944;-65
2022/05/07 08:31:10;;;;;;;16.17;14.77;;;21.30;41.00;;;;;;5074520;28;20450;-64
2022/05/07 08:33:37;;;;;;;14.30;13.20;;;21.20;41.90;;;;;;5063392;28;20427;-63
2022/05/07 08:36:04;;;;;;;14.90;13.70;;;21.40;42.30;;;;;;5067390;28;20440;-65
2022/05/07 08:38:31;;;;;;;13.70;12.55;;;21.50;41.70;;;;;;5068705;28;20544;-65
2022/05/07 08:41:00;;;;;;;14.23;12.93;;;21.70;40.90;;;;;;5066763;28;20925;-64
2022/05/07 08:43:26;;;;;;;13.57;12.40;;;22.00;40.40;;;;;;5069419;28;20419;-65
2022/05/07 08:45:53;;;;;;;14.77;13.57;;;22.30;40.40;;;;;;5070419;28;20419;-64
2022/05/07 08:48:20;;;;;;;14.38;13.27;;;22.30;39.90;;;;;;5074742;28;20485;-63
2022/05/07 08:50:47;;;;;;;12.70;11.65;;;22.30;39.80;;;;;;5069310;28;20439;-63
2022/05/07 08:53:14;;;;;;;12.77;11.57;;;22.50;40.00;;;;;;5079832;28;20450;-64
2022/05/07 08:55:41;;;;;;;12.55;11.45;;;22.70;39.80;;;;;;5091648;28;25155;-64
2022/05/07 08:58:10;;;;;;;11.80;10.80;;;22.80;38.60;;;;;;5088563;28;20435;-66
2022/05/07 09:00:38;;;;;;;13.40;12.20;;;22.80;39.00;;;;;;5067141;28;21106;-66
2022/05/07 09:03:04;;;;;;;14.32;12.93;;;22.90;39.40;;;;;;5069378;28;20992;-66
2022/05/07 09:05:33;;;;;;;13.95;12.85;;;23.00;37.20;;;;;;5082657;28;20551;-65
2022/05/07 09:08:02;;;;;;;13.43;12.23;;;23.00;38.20;;;;;;5089771;28;20419;-68
2022/05/07 09:10:30;;;;;;;14.43;13.23;;;23.00;38.00;;;;;;5092247;28;20435;-64
2022/05/07 09:13:01;;;;;;;15.03;13.67;;;23.00;37.90;;;;;;5075507;28;20431;-66
2022/05/07 09:15:29;;;;;;;14.50;13.20;;;22.90;37.70;;;;;;5067316;28;20535;-65
2022/05/07 09:17:56;;;;;;;12.55;11.45;;;22.90;38.40;;;;;;5073601;28;20439;-65
2022/05/07 09:20:23;;;;;;;13.98;12.88;;;23.10;37.80;;;;;;5067994;28;20543;-65
2022/05/07 09:22:52;;;;;;;13.38;12.27;;;23.30;37.70;;;;;;5066770;28;20440;-65
2022/05/07 09:25:22;;;;;;;12.65;11.55;;;23.40;38.00;;;;;;5067811;28;22172;-65
2022/05/07 09:27:51;;;;;;;12.30;11.20;;;23.80;37.60;;;;;;5075112;28;20516;-65
2022/05/07 09:30:23;;;;;;;12.83;11.83;;;24.00;36.30;;;;;;5069015;28;20427;-63
2022/05/07 09:32:53;;;;;;;11.18;10.07;;;24.10;36.00;;;;;;5064570;28;20713;-64
2022/05/07 09:38:06;;;;;;;10.20;9.30;;;24.40;35.20;;;;;;5074057;28;20425;-64
2022/05/07 09:40:38;;;;;;;11.07;10.07;;;24.60;35.50;;;;;;5066498;28;20424;-64
2022/05/07 09:43:05;;;;;;;13.13;11.93;;;24.80;35.20;;;;;;5067540;28;20498;-64
2022/05/07 09:45:33;;;;;;;11.43;10.32;;;25.00;34.10;;;;;;5070164;28;20607;-64
2022/05/07 09:48:01;;;;;;;10.35;9.45;;;25.10;34.30;;;;;;5068686;28;21754;-64
2022/05/07 09:50:47;;;;;;;11.03;10.13;;;25.20;34.00;;;;;;5072517;28;20464;-64
2022/05/07 09:58:45;;;;;;;11.95;10.85;;;25.30;32.00;;;;;;5069567;28;20457;-64
2022/05/07 10:01:27;;;;;;;11.20;10.10;;;25.30;33.00;;;;;;5064099;28;20469;-68
2022/05/07 10:04:06;;;;;;;10.13;9.23;;;25.40;32.40;;;;;;5079784;28;20981;-66
2022/05/07 10:06:45;;;;;;;11.02;9.98;;;25.30;33.50;;;;;;5055590;28;20503;-64
2022/05/07 10:09:28;;;;;;;9.70;8.70;;;25.50;32.60;;;;;;5065165;28;20435;-67
2022/05/07 10:11:58;;;;;;;9.82;8.93;;;25.70;32.00;;;;;;5072984;28;20436;-66
2022/05/07 10:14:26;;;;;;;10.32;9.43;;;25.90;32.30;;;;;;5091935;28;20436;-65
2022/05/07 10:16:58;;;;;;;10.20;9.30;;;25.90;32.20;;;;;;5093041;28;20479;-66
2022/05/07 10:19:39;;;;;;;9.63;8.63;;;26.10;32.10;;;;;;5078763;28;20850;-66
2022/05/07 10:22:21;;;;;;;8.00;7.30;;;26.40;31.70;;;;;;5068651;28;20427;-65
2022/05/07 10:24:49;;;;;;;12.82;11.52;;;26.70;31.30;;;;;;5070860;28;20478;-68
2022/05/07 10:27:26;;;;;;;10.57;9.40;;;26.90;30.00;;;;;;5068667;28;20488;-64
2022/05/07 10:30:07;;;;;;;9.63;8.57;;;27.10;29.80;;;;;;5060653;28;21008;-66
2022/05/07 10:32:54;;;;;;;10.70;9.60;;;27.20;30.00;;;;;;5066379;28;20431;-65
2022/05/07 10:35:40;;;;;;;11.25;10.25;;;27.60;29.80;;;;;;5062442;28;20916;-66
2022/05/07 10:38:08;;;;;;;7.97;7.30;;;28.00;28.20;;;;;;5065002;28;21097;-65
2022/05/07 10:40:35;;;;;;;10.13;9.27;;;28.10;29.30;;;;;;5071533;28;20461;-66
2022/05/07 10:43:03;;;;;;;11.10;10.20;;;28.40;28.80;;;;;;5059868;28;20421;-66
2022/05/07 10:45:41;;;;;;;11.45;10.55;;;28.60;28.00;;;;;;5070980;28;20411;-66
2022/05/07 10:48:17;;;;;;;12.02;10.93;;;28.90;27.40;;;;;;5072550;28;20453;-66
2022/05/07 10:50:53;;;;;;;9.60;8.70;;;28.90;27.60;;;;;;5067196;28;20516;-66
2022/05/07 10:53:20;;;;;;;12.40;11.30;;;28.40;28.10;;;;;;5066136;28;20451;-65
2022/05/07 10:55:50;;;;;;;10.75;9.85;;;27.70;28.30;;;;;;5068898;28;20427;-66
2022/05/07 10:58:26;;;;;;;10.77;9.88;;;27.10;29.60;;;;;;5077043;28;20419;-64
2022/05/07 11:00:53;;;;;;;9.60;8.80;;;27.30;30.00;;;;;;5074365;28;20431;-66
2022/05/07 11:03:25;;;;;;;10.87;9.87;;;27.90;29.50;;;;;;5069625;28;20439;-66
2022/05/07 11:06:00;;;;;;;10.55;9.75;;;28.50;28.70;;;;;;5064221;28;20489;-66
2022/05/07 11:08:29;;;;;;;9.80;9.00;;;28.40;28.40;;;;;;5059106;28;20868;-65
2022/05/07 11:11:05;;;;;;;9.20;8.40;;;28.60;28.40;;;;;;5062565;28;20507;-65
2022/05/07 11:13:31;;;;;;;9.70;9.00;;;28.90;28.20;;;;;;5068178;28;20431;-65
2022/05/07 11:16:04;;;;;;;8.43;7.82;;;29.00;27.80;;;;;;5068544;28;20427;-66
2022/05/07 11:18:33;;;;;;;9.60;8.90;;;29.20;27.60;;;;;;5068294;28;20499;-67
2022/05/07 11:21:03;;;;;;;10.93;10.02;;;29.20;27.20;;;;;;5071474;28;20465;-66
2022/05/07 11:23:30;;;;;;;9.98;9.18;;;29.10;27.40;;;;;;5068542;28;20427;-65
2022/05/07 11:25:57;;;;;;;13.18;11.98;;;28.80;26.80;;;;;;5070540;28;21079;-64
2022/05/07 11:28:24;;;;;;;10.65;9.77;;;28.40;26.60;;;;;;5066416;28;20503;-65
2022/05/07 11:30:51;;;;;;;11.00;10.10;;;27.80;28.00;;;;;;5061138;28;20415;-64
2022/05/07 11:33:24;;;;;;;10.68;9.77;;;27.70;28.40;;;;;;5059599;28;20436;-63
2022/05/07 11:36:02;;;;;;;12.23;11.30;;;27.50;28.00;;;;;;5064531;28;20796;-66
2022/05/07 11:38:29;;;;;;;12.80;11.70;;;27.10;28.50;;;;;;5067671;28;20415;-64
2022/05/07 11:40:56;;;;;;;13.57;12.48;;;26.60;28.10;;;;;;5075071;28;20431;-65
2022/05/07 11:46:07;;;;;;;9.88;8.98;;;25.80;29.70;;;;;;5065658;28;20398;-65
2022/05/07 11:48:34;;;;;;;9.70;8.90;;;26.00;31.00;;;;;;5068197;28;20481;-65
2022/05/07 11:51:02;;;;;;;7.85;7.15;;;26.60;30.40;;;;;;5060904;28;20483;-66
2022/05/07 11:53:30;;;;;;;9.20;8.40;;;27.20;30.00;;;;;;5073583;28;20483;-65
2022/05/07 11:56:06;;;;;;;10.73;9.80;;;27.60;29.30;;;;;;5068111;28;20438;-65
2022/05/07 11:58:40;;;;;;;10.57;9.70;;;28.10;28.60;;;;;;5071239;28;20440;-64
2022/05/07 12:01:18;;;;;;;8.75;7.90;;;28.30;28.40;;;;;;5068721;28;20443;-64
2022/05/07 12:03:45;;;;;;;7.53;6.82;;;28.60;28.00;;;;;;5058059;28;20430;-65
2022/05/07 12:06:24;;;;;;;8.95;8.25;;;29.00;27.80;;;;;;5057917;28;20486;-66
2022/05/07 12:08:50;;;;;;;8.18;7.57;;;29.10;27.50;;;;;;5068191;28;20739;-65
2022/05/07 12:11:19;;;;;;;7.60;6.93;;;29.10;27.50;;;;;;5067511;28;20427;-66
2022/05/07 12:13:46;;;;;;;7.25;6.65;;;29.20;27.40;;;;;;5068065;28;20856;-63
2022/05/07 12:18:57;;;;;;;9.40;8.70;;;28.80;27.20;;;;;;5064280;28;21063;-64
2022/05/07 12:29:49;;;;;;;9.00;8.30;;;28.40;27.90;;;;;;5071214;28;20434;-66
2022/05/07 12:32:16;;;;;;;7.20;6.60;;;28.40;27.40;;;;;;5062758;28;20433;-65
2022/05/07 12:34:43;;;;;;;9.15;8.35;;;28.40;28.00;;;;;;5053297;28;20429;-66
2022/05/07 12:37:11;;;;;;;9.38;8.57;;;28.60;28.10;;;;;;5072523;28;20430;-64
2022/05/07 12:39:38;;;;;;;8.35;7.55;;;28.60;27.50;;;;;;5070052;28;20506;-65
2022/05/07 12:42:05;;;;;;;6.67;6.07;;;28.50;27.50;;;;;;5068500;28;20481;-66
2022/05/07 12:44:32;;;;;;;7.67;6.87;;;28.60;28.10;;;;;;5068852;28;20431;-67
2022/05/07 12:46:59;;;;;;;5.35;4.88;;;28.90;26.60;;;;;;5066290;28;20435;-65
2022/05/07 12:49:26;;;;;;;6.30;5.70;;;29.10;27.20;;;;;;5072048;28;20426;-68
2022/05/07 12:51:54;;;;;;;7.40;6.70;;;29.10;26.20;;;;;;5073921;28;20502;-69
2022/05/07 12:54:22;;;;;;;7.80;7.00;;;28.90;26.30;;;;;;5079196;28;20517;-69
2022/05/07 12:56:49;;;;;;;7.43;6.80;;;28.50;27.20;;;;;;5088929;28;20447;-70
2022/05/07 12:59:16;;;;;;;8.15;7.53;;;28.10;28.00;;;;;;5091096;28;20407;-69
2022/05/07 13:01:42;;;;;;;9.20;8.40;;;27.70;28.40;;;;;;5080690;28;20429;-66
2022/05/07 13:04:09;;;;;;;8.95;8.15;;;27.40;28.60;;;;;;5066833;28;21294;-68
2022/05/07 13:06:36;;;;;;;7.20;6.60;;;27.20;29.30;;;;;;5068507;28;20558;-69
2022/05/07 13:09:03;;;;;;;8.60;7.90;;;27.00;29.30;;;;;;5067324;28;20443;-68
2022/05/07 13:11:31;;;;;;;10.40;9.50;;;26.90;29.40;;;;;;5062611;28;20424;-69
2022/05/07 13:13:58;;;;;;;11.10;10.18;;;26.60;29.70;;;;;;5069376;28;20465;-68
2022/05/07 13:16:25;;;;;;;10.65;9.75;;;26.10;30.30;;;;;;5070246;28;20423;-69
2022/05/07 13:18:52;;;;;;;10.05;9.25;;;25.70;31.10;;;;;;5060644;28;20472;-68
2022/05/07 13:21:18;;;;;;;10.23;9.23;;;25.50;32.30;;;;;;5070770;28;20435;-69